Time;durP1;ratioP1;P1;durP2;ratioP2;P2;SDS_P1;SDS_P2;PMS_P1;PMS_P2;Temp;Humidity;BMP_temperature;BMP_pressure;BME280_temperature;BME280_humidity;BME280_pressure;Samples;Min_cycle;Max_cycle;Signal;HPM_P1;HPM_P2
2021/11/18 00:00:10;;;;;;;9.25;7.38;;;8.80;99.90;;;;;;5017645;28;20236;-79
2021/11/18 00:02:37;;;;;;;9.60;7.40;;;8.80;99.90;;;;;;5017494;28;20300;-78
2021/11/18 00:05:06;;;;;;;10.38;7.55;;;8.70;99.90;;;;;;5017495;28;20503;-77
2021/11/18 00:07:34;;;;;;;10.40;7.70;;;8.70;99.90;;;;;;5017169;28;20336;-78
2021/11/18 00:10:00;;;;;;;9.23;7.50;;;8.80;99.90;;;;;;5017193;28;20244;-79
2021/11/18 00:12:29;;;;;;;11.20;7.57;;;8.80;99.90;;;;;;5017272;28;20244;-79
2021/11/18 00:14:56;;;;;;;10.15;7.05;;;8.80;99.90;;;;;;5016972;28;20221;-77
2021/11/18 00:17:22;;;;;;;11.25;7.07;;;8.80;99.90;;;;;;5020653;28;20233;-78
2021/11/18 00:19:49;;;;;;;9.75;7.05;;;8.90;99.90;;;;;;5023023;28;20312;-77
2021/11/18 00:22:16;;;;;;;11.82;7.30;;;8.90;99.90;;;;;;5021300;28;20213;-78
2021/11/18 00:24:44;;;;;;;10.23;7.80;;;8.90;99.90;;;;;;5021499;28;20276;-77
2021/11/18 00:27:11;;;;;;;10.00;7.68;;;8.90;99.90;;;;;;5022982;28;20300;-77
2021/11/18 00:29:39;;;;;;;9.30;6.80;;;8.90;99.90;;;;;;5020264;28;20266;-78
2021/11/18 00:32:06;;;;;;;11.23;7.35;;;8.80;99.90;;;;;;5021480;28;20297;-77
2021/11/18 00:34:33;;;;;;;10.40;7.43;;;8.80;99.90;;;;;;5017690;28;20221;-78
2021/11/18 00:37:00;;;;;;;8.55;6.80;;;8.90;99.90;;;;;;5018864;28;20296;-79
2021/11/18 00:39:27;;;;;;;10.02;6.97;;;8.90;99.90;;;;;;5018180;28;20238;-79
2021/11/18 00:41:53;;;;;;;9.07;7.40;;;8.90;99.90;;;;;;5019010;28;20210;-78
2021/11/18 00:44:20;;;;;;;8.98;6.82;;;8.80;99.90;;;;;;5017647;28;20237;-77
2021/11/18 00:46:49;;;;;;;9.20;7.10;;;8.80;99.90;;;;;;5015942;28;20212;-79
2021/11/18 00:49:16;;;;;;;9.18;7.13;;;8.70;99.90;;;;;;5015925;28;20267;-79
2021/11/18 00:51:43;;;;;;;9.20;6.45;;;8.70;99.90;;;;;;5017547;28;20276;-78
2021/11/18 00:54:11;;;;;;;8.27;6.85;;;8.70;99.90;;;;;;5019045;28;20220;-77
2021/11/18 00:56:37;;;;;;;7.63;6.10;;;8.70;99.90;;;;;;5017267;28;20249;-78
2021/11/18 00:59:04;;;;;;;9.77;6.53;;;8.80;99.90;;;;;;5015829;28;20312;-78
2021/11/18 01:01:35;;;;;;;9.20;6.55;;;8.80;99.90;;;;;;5016480;28;20639;-78
2021/11/18 01:04:04;;;;;;;10.75;6.85;;;8.90;99.90;;;;;;5016527;28;20252;-78
2021/11/18 01:06:31;;;;;;;8.10;6.03;;;8.90;99.90;;;;;;5016428;28;20300;-78
2021/11/18 01:08:57;;;;;;;7.57;6.07;;;8.90;99.90;;;;;;5016078;28;20657;-78
2021/11/18 01:11:27;;;;;;;7.85;6.00;;;8.90;99.90;;;;;;5015916;28;20527;-79
2021/11/18 01:13:54;;;;;;;8.60;6.22;;;8.80;99.90;;;;;;5019262;28;20285;-78
2021/11/18 01:16:23;;;;;;;13.38;6.72;;;8.80;99.90;;;;;;5017325;28;20661;-78
2021/11/18 01:18:50;;;;;;;9.13;6.20;;;8.80;99.90;;;;;;5021461;28;20221;-78
2021/11/18 01:21:19;;;;;;;9.43;6.75;;;8.70;99.90;;;;;;5028417;28;20215;-78
2021/11/18 01:23:47;;;;;;;8.90;7.10;;;8.70;99.90;;;;;;5018046;28;20693;-79
2021/11/18 01:26:16;;;;;;;8.98;6.15;;;8.60;99.90;;;;;;5015520;28;20209;-77
2021/11/18 01:28:44;;;;;;;11.88;6.70;;;8.50;99.90;;;;;;5018324;28;20583;-79
2021/11/18 01:31:11;;;;;;;8.77;6.38;;;8.60;99.90;;;;;;5015129;28;20212;-78
2021/11/18 01:33:40;;;;;;;10.25;7.25;;;8.60;99.90;;;;;;5014801;28;20210;-79
2021/11/18 01:36:08;;;;;;;9.80;6.70;;;8.60;99.90;;;;;;5015247;28;20212;-78
2021/11/18 01:38:36;;;;;;;9.02;6.90;;;8.60;99.90;;;;;;5015816;28;20229;-77
2021/11/18 01:41:06;;;;;;;11.02;6.80;;;8.60;99.90;;;;;;5015109;28;20679;-77
2021/11/18 01:43:37;;;;;;;8.75;6.38;;;8.60;99.90;;;;;;5017214;28;20577;-78
2021/11/18 01:46:05;;;;;;;9.32;6.90;;;8.70;99.90;;;;;;5016607;28;20225;-79
2021/11/18 01:48:32;;;;;;;9.48;7.00;;;8.70;99.90;;;;;;5014259;28;20238;-78
2021/11/18 01:50:59;;;;;;;10.93;7.00;;;8.70;99.90;;;;;;5014938;28;20198;-79
2021/11/18 01:53:35;;;;;;;9.82;6.68;;;8.60;99.90;;;;;;5015115;28;20508;-78
2021/11/18 01:56:05;;;;;;;8.43;6.38;;;8.60;99.90;;;;;;5017092;28;20194;-77
2021/11/18 01:58:32;;;;;;;8.85;6.10;;;8.60;99.90;;;;;;5018598;28;20228;-78
2021/11/18 02:01:00;;;;;;;8.85;6.45;;;8.70;99.90;;;;;;5014841;28;20190;-78
2021/11/18 02:03:27;;;;;;;9.13;6.03;;;8.70;99.90;;;;;;5017742;28;20683;-77
2021/11/18 02:05:58;;;;;;;9.43;6.13;;;8.70;99.90;;;;;;5015528;28;20239;-78
2021/11/18 02:08:25;;;;;;;10.35;6.65;;;8.70;99.90;;;;;;5014554;28;20260;-78
2021/11/18 02:10:55;;;;;;;9.98;6.65;;;8.70;99.90;;;;;;5015336;28;20208;-78
2021/11/18 02:13:25;;;;;;;10.60;6.65;;;8.60;99.90;;;;;;5014482;28;20300;-79
2021/11/18 02:15:54;;;;;;;9.85;6.85;;;8.60;99.90;;;;;;5014911;28;20207;-78
2021/11/18 02:18:23;;;;;;;9.73;6.47;;;8.60;99.90;;;;;;5014428;28;20237;-78
2021/11/18 02:20:53;;;;;;;10.77;7.13;;;8.60;99.90;;;;;;5014923;28;20220;-78
2021/11/18 02:23:23;;;;;;;7.82;5.93;;;8.60;99.90;;;;;;5014607;28;20209;-78
2021/11/18 02:25:50;;;;;;;9.40;6.65;;;8.60;99.90;;;;;;5014345;28;20691;-78
2021/11/18 02:28:18;;;;;;;7.90;6.32;;;8.70;99.90;;;;;;5017923;28;20245;-78
2021/11/18 02:30:47;;;;;;;9.73;6.35;;;8.70;99.90;;;;;;5015267;28;20214;-78
2021/11/18 02:33:17;;;;;;;8.88;6.32;;;8.70;99.90;;;;;;5015156;28;20572;-78
2021/11/18 02:35:45;;;;;;;8.47;6.27;;;8.80;99.90;;;;;;5014566;28;20220;-78
2021/11/18 02:38:14;;;;;;;9.35;5.97;;;8.90;99.90;;;;;;5014647;28;20451;-78
2021/11/18 02:40:42;;;;;;;9.63;6.40;;;9.00;99.90;;;;;;5015569;28;20213;-78
2021/11/18 02:43:14;;;;;;;10.40;6.33;;;8.90;99.90;;;;;;5014656;28;20308;-78
2021/11/18 02:45:43;;;;;;;8.20;5.90;;;9.00;99.90;;;;;;5014784;28;20448;-78
2021/11/18 02:48:11;;;;;;;8.30;5.75;;;9.00;99.90;;;;;;5014336;28;20811;-78
2021/11/18 02:50:41;;;;;;;9.52;5.85;;;9.20;99.90;;;;;;5015891;28;20286;-78
2021/11/18 02:53:08;;;;;;;8.85;6.00;;;8.90;99.90;;;;;;5014858;28;20585;-77
2021/11/18 02:55:39;;;;;;;10.02;5.97;;;8.80;99.90;;;;;;5014175;28;20563;-78
2021/11/18 02:58:07;;;;;;;9.73;6.30;;;8.80;99.90;;;;;;5014458;28;20203;-78
2021/11/18 03:00:38;;;;;;;11.23;6.63;;;8.70;99.90;;;;;;5017138;28;20241;-77
2021/11/18 03:03:05;;;;;;;9.80;6.27;;;8.70;99.90;;;;;;5020772;28;20562;-78
2021/11/18 03:05:32;;;;;;;8.73;6.37;;;8.80;99.90;;;;;;5021255;28;20796;-79
2021/11/18 03:07:59;;;;;;;7.97;5.90;;;8.80;99.90;;;;;;5019551;28;20459;-78
2021/11/18 03:10:27;;;;;;;8.45;5.60;;;8.60;99.90;;;;;;5021585;28;20519;-78
2021/11/18 03:12:56;;;;;;;8.40;5.90;;;8.80;99.90;;;;;;5018105;28;20210;-78
2021/11/18 03:15:24;;;;;;;11.97;5.97;;;9.00;99.90;;;;;;5020159;28;20456;-78
2021/11/18 03:17:51;;;;;;;8.63;6.63;;;8.90;99.90;;;;;;5023380;28;20457;-78
2021/11/18 03:20:21;;;;;;;8.07;5.50;;;8.80;99.90;;;;;;5021789;28;20303;-78
2021/11/18 03:22:48;;;;;;;9.88;5.55;;;8.70;99.90;;;;;;5024028;28;20204;-77
2021/11/18 03:25:18;;;;;;;10.07;5.97;;;8.70;99.90;;;;;;5023147;28;20215;-78
2021/11/18 03:27:45;;;;;;;9.38;6.32;;;8.70;99.90;;;;;;5018859;28;20213;-79
2021/11/18 03:30:22;;;;;;;8.60;6.60;;;8.70;99.90;;;;;;5018275;28;20269;-79
2021/11/18 03:32:49;;;;;;;8.68;6.53;;;8.70;99.90;;;;;;5018145;28;20198;-78
2021/11/18 03:35:16;;;;;;;8.73;6.47;;;8.70;99.90;;;;;;5018797;28;20209;-78
2021/11/18 03:37:43;;;;;;;8.90;6.40;;;8.70;99.90;;;;;;5020388;28;20219;-78
2021/11/18 03:40:11;;;;;;;9.57;6.63;;;8.80;99.90;;;;;;5022033;28;20232;-77
2021/11/18 03:42:38;;;;;;;11.35;6.43;;;8.90;99.90;;;;;;5017786;28;20698;-78
2021/11/18 03:45:06;;;;;;;12.13;5.85;;;8.80;99.90;;;;;;5016248;28;20213;-77
2021/11/18 03:47:35;;;;;;;8.63;6.33;;;8.90;99.90;;;;;;5016337;28;20680;-77
2021/11/18 03:50:02;;;;;;;10.43;6.70;;;8.90;99.90;;;;;;5016973;28;20500;-79
2021/11/18 03:52:29;;;;;;;8.40;5.90;;;8.80;99.90;;;;;;5016809;28;20216;-76
2021/11/18 03:54:55;;;;;;;9.60;6.97;;;8.80;99.90;;;;;;5018385;28;20302;-78
2021/11/18 03:57:22;;;;;;;9.87;6.73;;;8.80;99.90;;;;;;5019548;28;20643;-78
2021/11/18 03:59:50;;;;;;;7.97;6.30;;;8.80;99.90;;;;;;5018454;28;20530;-78
2021/11/18 04:02:18;;;;;;;9.25;6.22;;;8.80;99.90;;;;;;5019372;28;20210;-79
2021/11/18 04:04:48;;;;;;;9.30;6.63;;;8.80;99.90;;;;;;5019520;28;20221;-78
2021/11/18 04:07:16;;;;;;;9.52;6.55;;;8.80;99.90;;;;;;5020696;28;20189;-80
2021/11/18 04:09:44;;;;;;;10.00;7.43;;;8.80;99.90;;;;;;5018395;28;20271;-78
2021/11/18 04:12:13;;;;;;;11.45;6.90;;;8.80;99.90;;;;;;5018342;28;20451;-78
2021/11/18 04:14:41;;;;;;;11.00;7.63;;;8.80;99.90;;;;;;5021434;28;20217;-79
2021/11/18 04:17:08;;;;;;;9.88;6.68;;;8.80;99.90;;;;;;5019176;28;20203;-79
2021/11/18 04:19:35;;;;;;;7.78;5.53;;;8.80;99.90;;;;;;5025084;28;20320;-79
2021/11/18 04:22:04;;;;;;;8.98;6.45;;;9.00;99.90;;;;;;5024351;28;20321;-78
2021/11/18 04:24:33;;;;;;;10.30;7.20;;;9.00;99.90;;;;;;5022263;28;20240;-79
2021/11/18 04:27:01;;;;;;;10.13;6.70;;;8.90;99.90;;;;;;5025889;28;20209;-78
2021/11/18 04:29:29;;;;;;;11.98;6.57;;;8.90;99.90;;;;;;5023641;28;20314;-77
2021/11/18 04:31:58;;;;;;;9.55;6.80;;;8.90;99.90;;;;;;5023382;28;20214;-78
2021/11/18 04:34:25;;;;;;;10.27;7.90;;;9.00;99.90;;;;;;5018699;28;20213;-77
2021/11/18 04:36:53;;;;;;;9.68;6.80;;;8.90;99.90;;;;;;5020356;28;20193;-78
2021/11/18 04:39:22;;;;;;;9.50;7.05;;;8.80;99.90;;;;;;5018255;28;20232;-78
2021/11/18 04:41:51;;;;;;;11.27;7.53;;;8.80;99.90;;;;;;5016346;28;20209;-78
2021/11/18 04:44:18;;;;;;;10.43;7.57;;;8.80;99.90;;;;;;5016186;28;20213;-78
2021/11/18 04:46:45;;;;;;;11.02;8.32;;;8.80;99.90;;;;;;5019076;28;20452;-78
2021/11/18 04:51:39;;;;;;;11.45;7.72;;;8.80;99.90;;;;;;5038498;23;20241;-80
2021/11/18 04:54:06;;;;;;;11.00;7.20;;;8.90;99.90;;;;;;5028111;28;20229;-79
2021/11/18 04:56:35;;;;;;;12.43;7.63;;;8.90;99.90;;;;;;5026707;28;20415;-80
2021/11/18 04:59:03;;;;;;;11.65;8.00;;;8.90;99.90;;;;;;5025115;28;20481;-80
2021/11/18 05:01:30;;;;;;;10.30;8.07;;;8.90;99.90;;;;;;5018850;28;20662;-80
2021/11/18 05:03:57;;;;;;;12.30;7.70;;;8.90;99.90;;;;;;5019613;28;20239;-80
2021/11/18 05:06:24;;;;;;;12.57;8.00;;;8.80;99.90;;;;;;5030296;28;20213;-80
2021/11/18 05:08:51;;;;;;;13.57;8.90;;;8.90;99.90;;;;;;5029556;28;20230;-80
2021/11/18 05:11:18;;;;;;;16.63;8.03;;;8.90;99.90;;;;;;5028318;28;20320;-80
2021/11/18 05:13:46;;;;;;;15.70;9.23;;;9.00;99.90;;;;;;5026836;28;20536;-80
2021/11/18 05:16:16;;;;;;;10.75;8.00;;;9.00;99.90;;;;;;5022743;28;20296;-80
2021/11/18 05:18:43;;;;;;;11.77;9.13;;;9.00;99.90;;;;;;5020820;28;20204;-80
2021/11/18 05:21:13;;;;;;;11.73;8.13;;;9.00;99.90;;;;;;5023864;28;20481;-80
2021/11/18 05:23:41;;;;;;;11.00;8.50;;;9.00;99.90;;;;;;5019174;28;20663;-81
2021/11/18 05:26:10;;;;;;;15.10;8.47;;;9.00;99.90;;;;;;5018811;28;20295;-80
2021/11/18 05:28:37;;;;;;;10.20;7.50;;;9.00;99.90;;;;;;5017979;28;20458;-80
2021/11/18 05:31:06;;;;;;;10.98;7.72;;;9.10;99.90;;;;;;5017587;28;20472;-79
2021/11/18 05:33:34;;;;;;;10.77;7.78;;;9.20;99.90;;;;;;5017705;28;20218;-80
2021/11/18 05:36:01;;;;;;;10.15;7.88;;;9.00;99.90;;;;;;5019306;28;20209;-80
2021/11/18 05:38:28;;;;;;;10.50;8.07;;;9.00;99.90;;;;;;5019002;28;20584;-80
2021/11/18 05:40:55;;;;;;;11.77;8.57;;;9.00;99.90;;;;;;5017853;28;20230;-80
2021/11/18 05:43:23;;;;;;;12.18;8.90;;;9.00;99.90;;;;;;5018531;28;20205;-80
2021/11/18 05:45:50;;;;;;;10.60;7.57;;;9.10;99.90;;;;;;5017923;28;20280;-80
2021/11/18 05:48:19;;;;;;;10.30;7.20;;;9.00;99.90;;;;;;5021474;28;20590;-80
2021/11/18 05:50:50;;;;;;;12.75;8.82;;;9.00;99.90;;;;;;5023750;28;20263;-79
2021/11/18 05:53:18;;;;;;;10.85;7.97;;;9.00;99.90;;;;;;5028351;28;20193;-79
2021/11/18 05:55:46;;;;;;;12.38;8.60;;;9.10;99.90;;;;;;5023418;28;20237;-79
2021/11/18 05:58:13;;;;;;;13.60;9.60;;;9.20;99.90;;;;;;5022104;28;20274;-80
2021/11/18 06:00:40;;;;;;;16.60;8.65;;;9.30;99.90;;;;;;5020793;28;20638;-80
2021/11/18 06:03:07;;;;;;;11.70;8.87;;;9.20;99.90;;;;;;5021556;28;20241;-80
2021/11/18 06:05:35;;;;;;;13.63;9.20;;;9.30;99.90;;;;;;5022128;28;20521;-80
2021/11/18 06:08:02;;;;;;;11.30;8.17;;;9.20;99.90;;;;;;5026772;28;20233;-80
2021/11/18 06:10:31;;;;;;;12.27;8.10;;;9.10;99.90;;;;;;5023785;28;20493;-80
2021/11/18 06:12:58;;;;;;;12.38;7.95;;;9.10;99.90;;;;;;5022412;28;20232;-80
2021/11/18 06:15:26;;;;;;;17.95;8.45;;;9.00;99.90;;;;;;5021987;28;20621;-80
2021/11/18 06:17:53;;;;;;;12.07;8.30;;;9.00;99.90;;;;;;5022266;28;20229;-80
2021/11/18 06:20:20;;;;;;;14.05;8.93;;;9.00;99.90;;;;;;5024308;28;20316;-80
2021/11/18 06:22:50;;;;;;;13.68;9.05;;;9.00;99.90;;;;;;5026633;28;20671;-80
2021/11/18 06:25:20;;;;;;;14.00;8.57;;;9.00;99.90;;;;;;5025429;28;20233;-80
2021/11/18 06:27:48;;;;;;;15.30;9.35;;;9.10;99.90;;;;;;5027103;28;20222;-80
2021/11/18 06:30:18;;;;;;;14.95;9.77;;;9.10;99.90;;;;;;5023208;28;20321;-80
2021/11/18 06:32:46;;;;;;;14.88;9.32;;;9.10;99.90;;;;;;5018663;28;20285;-80
2021/11/18 06:35:14;;;;;;;14.67;10.40;;;9.00;99.90;;;;;;5017275;28;20228;-81
2021/11/18 06:37:41;;;;;;;14.43;9.73;;;9.00;99.90;;;;;;5017640;28;20464;-80
2021/11/18 06:40:11;;;;;;;16.88;11.05;;;9.00;99.90;;;;;;5017616;28;20507;-80
2021/11/18 06:42:39;;;;;;;18.37;11.10;;;8.90;99.90;;;;;;5018021;28;20198;-81
2021/11/18 06:45:07;;;;;;;15.25;10.52;;;8.90;99.90;;;;;;5020989;28;20457;-80
2021/11/18 06:47:34;;;;;;;12.90;8.47;;;9.00;99.90;;;;;;5026758;28;20297;-81
2021/11/18 06:50:00;;;;;;;15.60;9.77;;;9.20;99.90;;;;;;5020131;28;20491;-80
2021/11/18 06:52:27;;;;;;;11.52;8.23;;;9.20;99.90;;;;;;5018282;28;20220;-80
2021/11/18 06:54:54;;;;;;;14.13;9.10;;;9.30;99.90;;;;;;5018389;28;20209;-80
2021/11/18 06:57:23;;;;;;;13.20;9.30;;;9.30;99.90;;;;;;5017576;28;20217;-79
2021/11/18 06:59:50;;;;;;;19.38;11.25;;;9.20;99.90;;;;;;5017297;28;20605;-79
2021/11/18 07:02:18;;;;;;;13.40;9.50;;;9.10;99.90;;;;;;5019418;28;20320;-82
2021/11/18 07:04:48;;;;;;;17.60;9.53;;;9.20;99.90;;;;;;5018488;28;20476;-83
2021/11/18 07:07:15;;;;;;;17.77;11.77;;;9.30;99.90;;;;;;5018707;28;20473;-83
2021/11/18 07:09:43;;;;;;;16.17;11.50;;;9.40;99.90;;;;;;5017820;28;20782;-83
2021/11/18 07:12:13;;;;;;;18.70;11.03;;;9.20;99.90;;;;;;5018718;28;20984;-84
2021/11/18 07:14:42;;;;;;;18.10;12.88;;;9.10;99.90;;;;;;5023594;28;20538;-78
2021/11/18 07:17:09;;;;;;;17.17;11.65;;;9.00;99.90;;;;;;5021741;28;20277;-81
2021/11/18 07:19:37;;;;;;;16.00;10.27;;;8.80;99.90;;;;;;5022175;28;20241;-80
2021/11/18 07:22:05;;;;;;;18.10;11.00;;;8.90;99.90;;;;;;5020316;28;20476;-80
2021/11/18 07:24:34;;;;;;;19.30;11.27;;;8.80;99.90;;;;;;5018972;28;20325;-81
2021/11/18 07:27:02;;;;;;;21.20;11.70;;;8.90;99.90;;;;;;5019755;28;20214;-81
2021/11/18 07:29:29;;;;;;;20.10;11.27;;;9.00;99.90;;;;;;5019721;28;20538;-81
2021/11/18 07:31:57;;;;;;;20.40;11.15;;;8.90;99.90;;;;;;5020102;28;20216;-81
2021/11/18 07:34:24;;;;;;;18.58;10.80;;;8.80;99.90;;;;;;5021477;28;20220;-81
2021/11/18 07:36:51;;;;;;;15.45;11.23;;;8.90;99.90;;;;;;5019674;28;20273;-81
2021/11/18 07:39:22;;;;;;;17.13;11.07;;;8.90;99.90;;;;;;5020042;28;20261;-81
2021/11/18 07:41:49;;;;;;;18.67;10.10;;;8.90;99.90;;;;;;5019959;28;20773;-82
2021/11/18 07:44:16;;;;;;;17.80;10.45;;;8.90;99.90;;;;;;5019652;28;20301;-81
2021/11/18 07:46:43;;;;;;;21.13;11.32;;;8.90;99.90;;;;;;5020192;28;20214;-79
2021/11/18 07:49:12;;;;;;;17.20;10.35;;;8.90;99.90;;;;;;5028056;28;20292;-80
2021/11/18 07:51:41;;;;;;;14.30;9.93;;;9.00;99.90;;;;;;5020773;28;20332;-80
2021/11/18 07:54:09;;;;;;;15.05;9.85;;;8.90;99.90;;;;;;5020133;28;20224;-80
2021/11/18 07:56:37;;;;;;;15.40;10.00;;;9.00;99.90;;;;;;5023864;28;20731;-85
2021/11/18 07:59:04;;;;;;;15.00;10.60;;;9.00;99.90;;;;;;5027221;28;20492;-85
2021/11/18 08:01:32;;;;;;;16.33;10.80;;;9.10;99.90;;;;;;5027848;28;20289;-86
2021/11/18 08:03:58;;;;;;;13.98;9.32;;;9.10;99.90;;;;;;5034405;28;20221;-86
2021/11/18 08:06:29;;;;;;;18.43;10.30;;;9.10;99.90;;;;;;5028757;28;20345;-85
2021/11/18 08:08:56;;;;;;;15.47;10.63;;;9.00;99.90;;;;;;5023358;28;20452;-85
2021/11/18 08:11:26;;;;;;;20.15;9.27;;;9.10;99.90;;;;;;5022533;28;20485;-85
2021/11/18 08:13:54;;;;;;;22.73;10.55;;;9.00;99.90;;;;;;5021814;28;20298;-85
2021/11/18 08:16:21;;;;;;;20.00;10.10;;;9.10;99.90;;;;;;5019640;28;20214;-87
2021/11/18 08:18:49;;;;;;;21.00;10.30;;;9.10;99.90;;;;;;5020908;28;20248;-86
2021/11/18 08:21:17;;;;;;;20.38;9.90;;;9.10;99.90;;;;;;5019744;28;20226;-86
2021/11/18 08:23:45;;;;;;;19.07;12.50;;;9.20;99.90;;;;;;5029553;28;20218;-84
2021/11/18 08:26:25;;;;;;;18.33;11.47;;;9.20;99.90;;;;;;5031949;28;20463;-84
2021/11/18 08:28:52;;;;;;;16.30;10.60;;;9.20;99.90;;;;;;5025226;28;20437;-85
2021/11/18 08:31:20;;;;;;;24.97;12.10;;;9.30;99.90;;;;;;5021719;28;20569;-84
2021/11/18 08:33:48;;;;;;;19.58;11.13;;;9.30;99.90;;;;;;5021305;28;20475;-86
2021/11/18 08:36:15;;;;;;;23.07;12.30;;;9.30;99.90;;;;;;5019247;28;20229;-86
2021/11/18 08:38:42;;;;;;;26.93;12.30;;;9.40;99.90;;;;;;5018701;28;20899;-87
2021/11/18 08:41:11;;;;;;;23.10;13.00;;;9.60;99.90;;;;;;5022933;28;20979;-79
2021/11/18 08:43:41;;;;;;;23.55;12.75;;;9.60;99.90;;;;;;5021856;28;20599;-78
2021/11/18 08:46:10;;;;;;;21.30;12.23;;;9.60;99.90;;;;;;5018508;28;20198;-79
2021/11/18 08:48:39;;;;;;;25.17;13.60;;;9.60;99.90;;;;;;5017934;28;20518;-79
2021/11/18 08:51:09;;;;;;;23.43;11.93;;;9.60;99.90;;;;;;5017769;28;20497;-79
2021/11/18 08:53:40;;;;;;;24.00;14.30;;;9.60;99.90;;;;;;5020753;28;20556;-83
2021/11/18 08:56:07;;;;;;;27.90;13.95;;;9.60;99.90;;;;;;5024052;28;20442;-84
2021/11/18 08:58:40;;;;;;;18.70;11.00;;;9.60;99.90;;;;;;5024436;28;20345;-84
2021/11/18 09:01:10;;;;;;;23.57;12.90;;;9.50;99.90;;;;;;5023032;28;20484;-82
2021/11/18 09:03:39;;;;;;;26.42;14.35;;;9.50;99.90;;;;;;5022683;28;20453;-85
2021/11/18 09:06:08;;;;;;;26.45;13.00;;;9.60;99.90;;;;;;5022338;28;20194;-87
2021/11/18 09:08:37;;;;;;;22.57;12.77;;;9.50;99.90;;;;;;5026470;28;20207;-84
2021/11/18 09:11:07;;;;;;;24.90;13.03;;;9.60;99.90;;;;;;5020340;28;20495;-80
2021/11/18 09:13:35;;;;;;;24.47;11.53;;;9.50;99.90;;;;;;5021978;28;20545;-83
2021/11/18 09:16:03;;;;;;;25.33;13.63;;;9.50;99.90;;;;;;5022081;28;20536;-83
2021/11/18 09:18:30;;;;;;;26.57;13.67;;;9.50;99.90;;;;;;5021582;28;20464;-81
2021/11/18 09:20:58;;;;;;;21.60;13.17;;;9.40;99.90;;;;;;5018945;28;20780;-81
2021/11/18 09:23:28;;;;;;;27.20;13.83;;;9.50;99.90;;;;;;5020840;28;20432;-80
2021/11/18 09:25:55;;;;;;;24.97;14.00;;;9.50;99.90;;;;;;5018426;28;20452;-80
2021/11/18 09:28:24;;;;;;;22.67;12.60;;;9.50;99.90;;;;;;5017265;28;20461;-81
2021/11/18 09:30:56;;;;;;;24.30;13.60;;;9.50;99.90;;;;;;5017774;28;20841;-83
2021/11/18 09:33:23;;;;;;;24.20;12.43;;;9.40;99.90;;;;;;5019842;28;20502;-83
2021/11/18 09:35:55;;;;;;;25.75;12.30;;;9.30;99.90;;;;;;5019813;28;20213;-80
2021/11/18 09:38:24;;;;;;;25.05;14.02;;;9.40;99.90;;;;;;5018288;28;20286;-79
2021/11/18 09:40:54;;;;;;;24.30;12.70;;;9.40;99.90;;;;;;5017992;28;20256;-80
2021/11/18 09:44:09;;;;;;;20.07;11.97;;;9.50;99.90;;;;;;5026648;28;20440;-80
2021/11/18 09:47:11;;;;;;;18.30;10.98;;;9.60;99.90;;;;;;4973503;28;20450;-79
2021/11/18 09:49:54;;;;;;;17.07;10.50;;;9.50;99.90;;;;;;5018516;28;20263;-80
2021/11/18 09:52:28;;;;;;;23.43;11.80;;;9.60;99.90;;;;;;5018601;28;20425;-80
2021/11/18 09:55:03;;;;;;;20.50;12.50;;;9.70;99.90;;;;;;5019036;28;20492;-79
2021/11/18 09:57:43;;;;;;;26.50;16.67;;;9.70;99.90;;;;;;5016507;28;20461;-79
2021/11/18 10:00:15;;;;;;;25.70;14.27;;;9.80;99.90;;;;;;5016026;28;20483;-79
2021/11/18 10:03:07;;;;;;;23.53;11.40;;;9.90;99.90;;;;;;5016327;28;20445;-78
2021/11/18 10:05:36;;;;;;;17.53;11.20;;;9.90;99.90;;;;;;5016875;28;20781;-78
2021/11/18 10:08:08;;;;;;;17.00;10.33;;;10.00;99.90;;;;;;5016022;28;20536;-79
2021/11/18 10:10:45;;;;;;;22.00;12.10;;;10.00;99.90;;;;;;5015544;28;21073;-79
2021/11/18 10:13:39;;;;;;;23.53;12.90;;;10.10;99.90;;;;;;5017063;28;20444;-78
2021/11/18 10:16:12;;;;;;;23.80;12.20;;;10.10;99.90;;;;;;5020932;28;20460;-79
2021/11/18 10:18:42;;;;;;;24.17;13.33;;;10.20;99.90;;;;;;5025156;28;20452;-78
2021/11/18 10:21:15;;;;;;;18.10;11.23;;;10.30;99.90;;;;;;5025930;28;20487;-79
2021/11/18 10:23:44;;;;;;;23.03;11.17;;;10.30;99.90;;;;;;5025483;28;20533;-79
2021/11/18 10:26:20;;;;;;;18.03;11.73;;;10.30;99.90;;;;;;5025427;28;20496;-79
2021/11/18 10:29:06;;;;;;;19.37;11.30;;;10.30;99.90;;;;;;5024024;28;20441;-79
2021/11/18 10:31:45;;;;;;;18.40;11.70;;;10.40;99.90;;;;;;5025348;28;20559;-80
2021/11/18 10:34:16;;;;;;;16.70;11.87;;;10.50;99.90;;;;;;5020464;28;20409;-79
2021/11/18 10:36:56;;;;;;;18.67;11.60;;;10.90;99.90;;;;;;5025113;28;20462;-79
2021/11/18 10:39:32;;;;;;;18.60;11.20;;;11.10;99.90;;;;;;5022449;28;20469;-79
2021/11/18 10:42:01;;;;;;;19.00;11.40;;;11.10;99.90;;;;;;5018520;28;20536;-79
2021/11/18 10:44:31;;;;;;;17.90;11.97;;;10.90;99.90;;;;;;5017626;28;21028;-79
2021/11/18 10:47:08;;;;;;;21.20;11.37;;;10.70;99.90;;;;;;5017788;28;20458;-79
2021/11/18 10:49:54;;;;;;;19.47;11.73;;;10.80;99.90;;;;;;5017376;28;20460;-78
2021/11/18 10:52:31;;;;;;;16.33;10.33;;;10.80;99.90;;;;;;5044314;23;20592;-80
2021/11/18 10:55:06;;;;;;;16.00;10.53;;;10.80;99.90;;;;;;5025768;28;20459;-80
2021/11/18 10:57:34;;;;;;;17.77;11.23;;;10.70;99.90;;;;;;5017921;28;20411;-80
2021/11/18 11:00:15;;;;;;;19.23;12.47;;;10.80;99.90;;;;;;5017601;28;20428;-80
2021/11/18 11:02:42;;;;;;;17.53;10.87;;;10.70;99.90;;;;;;5017431;28;20473;-79
2021/11/18 11:05:32;;;;;;;18.47;11.60;;;10.80;99.90;;;;;;5016699;28;20876;-79
2021/11/18 11:08:00;;;;;;;16.40;11.07;;;10.80;99.90;;;;;;5017591;28;20484;-80
2021/11/18 11:10:30;;;;;;;16.47;10.60;;;10.90;99.90;;;;;;5017409;28;20445;-80
2021/11/18 11:13:05;;;;;;;18.03;11.00;;;11.10;99.90;;;;;;5016514;28;20459;-81
2021/11/18 11:16:06;;;;;;;19.27;9.40;;;10.90;99.90;;;;;;5017438;28;20532;-79
2021/11/18 11:18:44;;;;;;;18.20;12.37;;;10.80;99.90;;;;;;5015918;28;20443;-80
2021/11/18 11:21:35;;;;;;;16.20;10.60;;;10.80;99.90;;;;;;5017518;28;20554;-79
2021/11/18 11:24:41;;;;;;;13.13;8.60;;;10.90;99.90;;;;;;5021281;28;20416;-80
2021/11/18 11:27:37;;;;;;;14.30;8.90;;;10.90;99.90;;;;;;5005939;28;20439;-79
2021/11/18 11:30:20;;;;;;;14.77;9.30;;;11.10;99.90;;;;;;5019525;28;20419;-78
2021/11/18 11:32:52;;;;;;;15.40;10.47;;;11.30;99.90;;;;;;5019183;28;20428;-79
2021/11/18 11:35:30;;;;;;;21.33;10.23;;;11.20;99.90;;;;;;5020109;28;20473;-78
2021/11/18 11:38:39;;;;;;;14.07;9.50;;;11.10;99.90;;;;;;5020426;28;20441;-79
2021/11/18 11:41:25;;;;;;;15.97;9.87;;;11.10;99.90;;;;;;5022019;28;20579;-82
2021/11/18 11:43:57;;;;;;;15.67;8.90;;;11.30;99.90;;;;;;5020700;28;20927;-78
2021/11/18 11:46:35;;;;;;;15.83;9.40;;;11.00;99.90;;;;;;5018759;28;20448;-77
2021/11/18 11:49:28;;;;;;;12.43;8.57;;;11.00;99.90;;;;;;5016254;28;20438;-77
2021/11/18 11:52:17;;;;;;;12.40;8.70;;;11.30;99.90;;;;;;5018487;28;20492;-77
2021/11/18 11:55:23;;;;;;;13.97;8.57;;;11.20;99.90;;;;;;5019273;28;20529;-78
2021/11/18 11:57:57;;;;;;;14.33;8.87;;;11.00;99.90;;;;;;5009835;28;20954;-78
2021/11/18 12:00:30;;;;;;;15.57;10.40;;;10.90;99.90;;;;;;5019068;28;20810;-78
2021/11/18 12:03:10;;;;;;;12.93;9.73;;;10.90;99.90;;;;;;5018769;28;20499;-78
2021/11/18 12:05:43;;;;;;;16.80;11.07;;;10.80;99.90;;;;;;5017336;28;20809;-78
2021/11/18 12:08:17;;;;;;;16.27;12.10;;;10.70;99.90;;;;;;5019296;28;20434;-78
2021/11/18 12:10:49;;;;;;;17.43;11.30;;;10.70;99.90;;;;;;5019000;28;20452;-80
2021/11/18 12:13:29;;;;;;;20.53;12.83;;;10.60;99.90;;;;;;5019681;28;20497;-80
2021/11/18 12:15:59;;;;;;;26.87;11.73;;;10.40;99.90;;;;;;5016289;28;20453;-78
2021/11/18 12:18:33;;;;;;;19.30;12.40;;;10.50;99.90;;;;;;5018056;28;20951;-78
2021/11/18 12:21:00;;;;;;;20.90;11.80;;;10.60;99.90;;;;;;5019827;28;21058;-78
2021/11/18 12:24:04;;;;;;;18.63;10.70;;;10.80;99.90;;;;;;5022861;28;20539;-79
2021/11/18 12:26:45;;;;;;;17.63;10.47;;;10.90;99.90;;;;;;5023398;28;20544;-79
2021/11/18 12:29:25;;;;;;;17.67;11.73;;;10.80;99.90;;;;;;5018891;28;20408;-79
2021/11/18 12:32:25;;;;;;;17.90;10.50;;;10.70;99.90;;;;;;5015985;28;20493;-78
2021/11/18 12:34:56;;;;;;;15.33;10.10;;;10.80;99.90;;;;;;5018379;28;20434;-79
2021/11/18 12:37:27;;;;;;;20.43;12.30;;;10.90;99.90;;;;;;5019796;28;20552;-80
2021/11/18 12:40:33;;;;;;;18.43;9.90;;;10.90;99.90;;;;;;5017385;28;20416;-78
2021/11/18 12:43:16;;;;;;;18.37;9.23;;;11.00;99.90;;;;;;4994731;28;20462;-78
2021/11/18 12:45:56;;;;;;;17.43;11.00;;;10.90;99.90;;;;;;5016154;28;20438;-77
2021/11/18 12:48:26;;;;;;;17.60;11.70;;;10.70;99.90;;;;;;5017259;28;20437;-78
2021/11/18 12:51:22;;;;;;;16.63;11.80;;;10.60;99.90;;;;;;5017658;28;20477;-77
2021/11/18 12:53:57;;;;;;;14.30;9.67;;;10.60;99.90;;;;;;5011693;28;20456;-78
2021/11/18 12:56:28;;;;;;;11.50;9.03;;;10.70;99.90;;;;;;5022694;28;20429;-77
2021/11/18 12:58:59;;;;;;;20.70;8.63;;;10.70;99.90;;;;;;5028031;28;20396;-78
2021/11/18 13:02:00;;;;;;;14.87;10.17;;;10.70;99.90;;;;;;5020690;28;20461;-78
2021/11/18 13:04:57;;;;;;;15.47;11.07;;;10.80;99.90;;;;;;5018485;28;20553;-78